createdAt,value
2023-02-19T00:00:58.784Z,1004.43
2023-02-19T00:01:58.810Z,1004.40
2023-02-19T00:02:58.791Z,1004.49
2023-02-19T00:03:58.751Z,1004.50
2023-02-19T00:04:58.763Z,1004.50
2023-02-19T00:05:58.734Z,1004.49
2023-02-19T00:06:58.737Z,1004.51
2023-02-19T00:07:58.893Z,1004.58
2023-02-19T00:08:58.678Z,1004.55
2023-02-19T00:09:58.666Z,1004.49
2023-02-19T00:10:58.656Z,1004.49
2023-02-19T00:11:58.636Z,1004.46
2023-02-19T00:12:58.662Z,1004.45
2023-02-19T00:13:58.645Z,1004.52
2023-02-19T00:14:58.617Z,1004.53
2023-02-19T00:15:58.607Z,1004.62
2023-02-19T00:16:58.626Z,1004.52
2023-02-19T00:17:58.593Z,1004.55
2023-02-19T00:19:10.046Z,1004.50
2023-02-19T00:19:58.547Z,1004.63
2023-02-19T00:20:58.564Z,1004.52
2023-02-19T00:21:58.518Z,1004.52
2023-02-19T00:22:58.519Z,1004.50
2023-02-19T00:23:58.562Z,1004.55
2023-02-19T00:24:58.503Z,1004.45
2023-02-19T00:26:06.019Z,1004.51
2023-02-19T00:26:59.491Z,1004.49
2023-02-19T00:27:58.481Z,1004.48
2023-02-19T00:28:58.495Z,1004.45
2023-02-19T00:29:58.456Z,1004.50
2023-02-19T00:30:58.488Z,1004.49
2023-02-19T00:31:58.556Z,1004.46
2023-02-19T00:32:58.411Z,1004.49
2023-02-19T00:33:58.441Z,1004.45
2023-02-19T00:34:58.387Z,1004.41
2023-02-19T00:35:58.390Z,1004.35
2023-02-19T00:36:58.389Z,1004.39
2023-02-19T00:37:58.346Z,1004.43
2023-02-19T00:38:58.475Z,1004.41
2023-02-19T00:39:58.325Z,1004.42
2023-02-19T00:40:58.341Z,1004.43
2023-02-19T00:41:58.296Z,1004.34
2023-02-19T00:42:58.296Z,1004.39
2023-02-19T00:43:58.283Z,1004.34
2023-02-19T00:44:58.326Z,1004.33
2023-02-19T00:45:58.288Z,1004.34
2023-02-19T00:46:58.260Z,1004.27
2023-02-19T00:47:58.233Z,1004.24
2023-02-19T00:48:58.256Z,1004.28
2023-02-19T00:49:59.936Z,1004.26
2023-02-19T00:50:58.235Z,1004.27
2023-02-19T00:51:58.195Z,1004.29
2023-02-19T00:52:58.181Z,1004.24
2023-02-19T00:53:58.210Z,1004.26
2023-02-19T00:54:58.188Z,1004.27
2023-02-19T00:55:58.141Z,1004.20
2023-02-19T00:56:58.164Z,1004.21
2023-02-19T00:57:58.111Z,1004.26
2023-02-19T00:58:58.112Z,1004.25
2023-02-19T00:59:58.132Z,1004.25
2023-02-19T01:00:58.092Z,1004.20
2023-02-19T01:01:58.108Z,1004.22
2023-02-19T01:02:58.070Z,1004.28
2023-02-19T01:03:58.068Z,1004.26
2023-02-19T01:04:58.134Z,1004.27
2023-02-19T01:05:58.240Z,1004.19
2023-02-19T01:06:58.034Z,1004.18
2023-02-19T01:07:58.045Z,1004.21
2023-02-19T01:08:58.170Z,1004.20
2023-02-19T01:09:58.015Z,1004.21
2023-02-19T01:10:57.960Z,1004.20
2023-02-19T01:11:58.005Z,1004.16
2023-02-19T01:12:57.940Z,1004.19
2023-02-19T01:13:57.939Z,1004.20
2023-02-19T01:14:57.911Z,1004.17
2023-02-19T01:15:57.994Z,1004.14
2023-02-19T01:16:57.918Z,1004.24
2023-02-19T01:17:57.916Z,1004.21
2023-02-19T01:18:57.868Z,1004.27
2023-02-19T01:19:57.916Z,1004.17
2023-02-19T01:20:57.848Z,1004.19
2023-02-19T01:21:57.949Z,1004.21
2023-02-19T01:22:57.846Z,1004.16
2023-02-19T01:23:57.851Z,1004.19
2023-02-19T01:24:57.847Z,1004.06
2023-02-19T01:25:57.826Z,1004.15
2023-02-19T01:26:57.819Z,1004.14
2023-02-19T01:27:57.770Z,1004.12
2023-02-19T01:28:57.777Z,1004.18
2023-02-19T01:29:57.775Z,1004.16
2023-02-19T01:30:57.771Z,1004.22
2023-02-19T01:31:57.841Z,1004.11
2023-02-19T01:32:57.702Z,1004.15
2023-02-19T01:33:57.712Z,1004.19
2023-02-19T01:34:57.690Z,1004.19
2023-02-19T01:35:57.681Z,1004.16
2023-02-19T01:36:57.685Z,1004.19
2023-02-19T01:37:57.673Z,1004.15
2023-02-19T01:38:57.675Z,1004.12
2023-02-19T01:39:57.646Z,1004.12
2023-02-19T01:40:57.662Z,1004.14
2023-02-19T01:41:57.916Z,1004.23
2023-02-19T01:42:57.632Z,1004.16
2023-02-19T01:43:57.639Z,1004.11
2023-02-19T01:44:57.586Z,1004.14
2023-02-19T01:45:57.583Z,1004.07
2023-02-19T01:46:57.588Z,1004.07
2023-02-19T01:47:57.567Z,1004.09
2023-02-19T01:48:57.564Z,1004.11
2023-02-19T01:49:57.541Z,1004.06
2023-02-19T01:50:57.544Z,1004.09
2023-02-19T01:51:57.516Z,1004.08
2023-02-19T01:52:57.821Z,1004.08
2023-02-19T01:53:57.509Z,1004.05
2023-02-19T01:54:57.513Z,1004.00
2023-02-19T01:55:57.438Z,1004.03
2023-02-19T01:56:57.467Z,1004.00
2023-02-19T01:57:57.423Z,1004.05
2023-02-19T01:58:57.474Z,1004.05
2023-02-19T01:59:57.421Z,1004.07
2023-02-19T02:00:57.426Z,1004.05
2023-02-19T02:01:57.420Z,1003.94
2023-02-19T02:02:57.372Z,1004.09
2023-02-19T02:03:57.344Z,1004.09
2023-02-19T02:04:57.409Z,1004.02
2023-02-19T02:05:57.324Z,1004.06
2023-02-19T02:06:57.347Z,1004.02
2023-02-19T02:07:57.330Z,1004.04
2023-02-19T02:08:57.308Z,1004.02
2023-02-19T02:09:57.272Z,1004.03
2023-02-19T02:10:57.320Z,1004.03
2023-02-19T02:11:57.293Z,1004.01
2023-02-19T02:12:57.253Z,1003.98
2023-02-19T02:13:57.260Z,1004.03
2023-02-19T02:14:57.285Z,1004.00
2023-02-19T02:15:57.316Z,1004.08
2023-02-19T02:16:57.241Z,1004.04
2023-02-19T02:17:57.209Z,1003.97
2023-02-19T02:18:57.233Z,1004.03
2023-02-19T02:19:57.171Z,1003.97
2023-02-19T02:20:57.166Z,1004.01
2023-02-19T02:21:57.179Z,1004.04
2023-02-19T02:22:57.174Z,1004.02
2023-02-19T02:23:57.148Z,1004.00
2023-02-19T02:24:57.150Z,1004.03
2023-02-19T02:25:57.126Z,1003.95
2023-02-19T02:26:57.102Z,1004.03
2023-02-19T02:27:57.154Z,1004.07
2023-02-19T02:28:57.110Z,1004.06
2023-02-19T02:29:57.051Z,1004.07
2023-02-19T02:30:57.125Z,1004.14
2023-02-19T02:31:57.181Z,1004.15
2023-02-19T02:32:57.098Z,1004.12
2023-02-19T02:33:57.031Z,1004.14
2023-02-19T02:34:57.060Z,1004.20
2023-02-19T02:35:57.018Z,1004.15
2023-02-19T02:36:56.982Z,1004.15
2023-02-19T02:37:56.972Z,1004.12
2023-02-19T02:38:57.027Z,1004.24
2023-02-19T02:39:56.942Z,1004.16
2023-02-19T02:40:56.978Z,1004.14
2023-02-19T02:41:56.942Z,1004.12
2023-02-19T02:42:56.921Z,1004.18
2023-02-19T02:43:56.915Z,1004.18
2023-02-19T02:44:56.894Z,1004.12
2023-02-19T02:45:56.957Z,1004.17
2023-02-19T02:46:56.952Z,1004.11
2023-02-19T02:47:56.845Z,1004.19
2023-02-19T02:48:56.877Z,1004.10
2023-02-19T02:49:56.851Z,1004.11
2023-02-19T02:50:56.835Z,1004.10
2023-02-19T02:51:56.825Z,1004.19
2023-02-19T02:52:56.860Z,1004.18
2023-02-19T02:53:56.852Z,1004.23
2023-02-19T02:54:56.825Z,1004.14
2023-02-19T02:55:56.808Z,1004.26
2023-02-19T02:56:56.786Z,1004.21
2023-02-19T02:57:56.762Z,1004.19
2023-02-19T02:58:56.792Z,1004.20
2023-02-19T02:59:56.706Z,1004.16
2023-02-19T03:00:56.722Z,1004.20
2023-02-19T03:01:56.798Z,1004.18
2023-02-19T03:02:56.720Z,1004.10
2023-02-19T03:03:57.053Z,1004.07
2023-02-19T03:04:56.713Z,1004.08
2023-02-19T03:05:56.667Z,1004.07
2023-02-19T03:06:56.648Z,1004.12
2023-02-19T03:07:56.657Z,1004.13
2023-02-19T03:09:02.595Z,1004.12
2023-02-19T03:09:56.690Z,1004.09
2023-02-19T03:10:56.624Z,1004.10
2023-02-19T03:11:56.596Z,1004.17
2023-02-19T03:12:56.580Z,1004.15
2023-02-19T03:13:56.584Z,1004.16
2023-02-19T03:14:56.549Z,1004.13
2023-02-19T03:15:56.617Z,1004.17
2023-02-19T03:16:56.557Z,1004.09
2023-02-19T03:17:56.502Z,1004.16
2023-02-19T03:18:56.546Z,1004.16
2023-02-19T03:19:56.516Z,1004.10
2023-02-19T03:20:56.481Z,1004.12
2023-02-19T03:21:56.470Z,1004.11
2023-02-19T03:22:56.469Z,1004.27
2023-02-19T03:23:56.471Z,1004.33
2023-02-19T03:24:56.554Z,1004.24
2023-02-19T03:25:56.440Z,1004.26
2023-02-19T03:26:56.412Z,1004.26
2023-02-19T03:27:56.406Z,1004.30
2023-02-19T03:28:56.391Z,1004.31
2023-02-19T03:29:56.415Z,1004.27
2023-02-19T03:30:56.421Z,1004.26
2023-02-19T03:31:56.400Z,1004.32
2023-02-19T03:32:56.392Z,1004.33
2023-02-19T03:33:56.344Z,1004.40
2023-02-19T03:34:56.357Z,1004.33
2023-02-19T03:35:56.341Z,1004.36
2023-02-19T03:36:56.315Z,1004.33
2023-02-19T03:37:56.303Z,1004.36
2023-02-19T03:38:56.283Z,1004.34
2023-02-19T03:39:56.322Z,1004.36
2023-02-19T03:40:56.353Z,1004.49
2023-02-19T03:41:56.270Z,1004.41
2023-02-19T03:42:56.314Z,1004.37
2023-02-19T03:43:56.230Z,1004.40
2023-02-19T03:44:56.258Z,1004.45
2023-02-19T03:45:56.222Z,1004.44
2023-02-19T03:46:56.262Z,1004.45
2023-02-19T03:47:56.179Z,1004.46
2023-02-19T03:48:56.179Z,1004.49
2023-02-19T03:49:56.149Z,1004.54
2023-02-19T03:50:56.169Z,1004.53
2023-02-19T03:51:56.130Z,1004.52
2023-02-19T03:52:56.124Z,1004.60
2023-02-19T03:53:56.108Z,1004.59
2023-02-19T03:54:56.090Z,1004.70
2023-02-19T03:56:03.412Z,1004.69
2023-02-19T03:56:56.066Z,1004.66
2023-02-19T03:57:56.065Z,1004.64
2023-02-19T03:58:56.041Z,1004.68
2023-02-19T03:59:56.057Z,1004.72
2023-02-19T04:00:56.020Z,1004.74
2023-02-19T04:01:56.074Z,1004.75
2023-02-19T04:02:56.018Z,1004.77
2023-02-19T04:03:56.024Z,1004.75
2023-02-19T04:04:56.058Z,1004.74
2023-02-19T04:05:55.953Z,1004.84
2023-02-19T04:06:55.997Z,1004.80
2023-02-19T04:07:55.994Z,1004.77
2023-02-19T04:08:55.929Z,1004.78
2023-02-19T04:09:55.904Z,1004.80
2023-02-19T04:10:55.908Z,1004.84
2023-02-19T04:11:55.908Z,1004.82
2023-02-19T04:12:55.891Z,1004.81
2023-02-19T04:13:55.885Z,1004.80
2023-02-19T04:14:55.858Z,1004.97
2023-02-19T04:15:55.887Z,1004.89
2023-02-19T04:16:55.925Z,1004.97
2023-02-19T04:17:55.811Z,1004.88
2023-02-19T04:18:55.818Z,1005.00
2023-02-19T04:19:55.789Z,1005.02
2023-02-19T04:20:55.814Z,1005.08
2023-02-19T04:21:55.788Z,1005.09
2023-02-19T04:22:55.802Z,1005.13
2023-02-19T04:23:56.088Z,1005.08
2023-02-19T04:24:55.800Z,1005.10
2023-02-19T04:25:55.776Z,1005.03
2023-02-19T04:26:55.752Z,1005.10
2023-02-19T04:27:55.730Z,1005.12
2023-02-19T04:28:55.726Z,1005.13
2023-02-19T04:29:55.715Z,1005.11
2023-02-19T04:30:55.732Z,1005.06
2023-02-19T04:31:55.715Z,1005.14
2023-02-19T04:32:55.683Z,1005.09
2023-02-19T04:33:55.659Z,1005.14
2023-02-19T04:34:55.672Z,1005.19
2023-02-19T04:35:55.633Z,1005.16
2023-02-19T04:36:55.669Z,1005.16
2023-02-19T04:37:55.585Z,1005.17
2023-02-19T04:38:55.604Z,1005.08
2023-02-19T04:39:55.614Z,1005.18
2023-02-19T04:40:55.559Z,1005.15
2023-02-19T04:41:55.533Z,1005.19
2023-02-19T04:42:55.592Z,1005.14
2023-02-19T04:43:55.518Z,1005.24
2023-02-19T04:44:55.523Z,1005.27
2023-02-19T04:45:55.528Z,1005.28
2023-02-19T04:46:55.496Z,1005.28
2023-02-19T04:47:55.486Z,1005.33
2023-02-19T04:48:55.493Z,1005.31
2023-02-19T04:49:55.465Z,1005.27
2023-02-19T04:50:55.443Z,1005.29
2023-02-19T04:51:55.418Z,1005.35
2023-02-19T04:52:55.464Z,1005.39
2023-02-19T04:53:55.446Z,1005.39
2023-02-19T04:54:55.426Z,1005.43
2023-02-19T04:55:55.383Z,1005.39
2023-02-19T04:56:55.390Z,1005.40
2023-02-19T04:57:55.405Z,1005.35
2023-02-19T04:58:55.356Z,1005.42
2023-02-19T04:59:55.331Z,1005.48
2023-02-19T05:00:55.354Z,1005.41
2023-02-19T05:01:55.423Z,1005.50
2023-02-19T05:02:55.332Z,1005.38
2023-02-19T05:03:55.351Z,1005.40
2023-02-19T05:04:55.307Z,1005.48
2023-02-19T05:05:55.286Z,1005.47
2023-02-19T05:06:55.285Z,1005.53
2023-02-19T05:07:55.265Z,1005.50
2023-02-19T05:08:56.965Z,1005.53
2023-02-19T05:09:55.211Z,1005.54
2023-02-19T05:10:55.246Z,1005.56
2023-02-19T05:11:55.246Z,1005.53
2023-02-19T05:12:57.770Z,1005.57
2023-02-19T05:13:55.168Z,1005.54
2023-02-19T05:14:55.221Z,1005.53
2023-02-19T05:15:55.265Z,1005.55
2023-02-19T05:16:55.149Z,1005.55
2023-02-19T05:17:55.113Z,1005.60
2023-02-19T05:18:55.170Z,1005.60
2023-02-19T05:19:55.094Z,1005.65
2023-02-19T05:20:55.159Z,1005.66
2023-02-19T05:21:55.075Z,1005.68
2023-02-19T05:22:55.123Z,1005.74
2023-02-19T05:23:55.084Z,1005.71
2023-02-19T05:24:55.056Z,1005.78
2023-02-19T05:25:55.026Z,1005.74
2023-02-19T05:26:55.082Z,1005.74
2023-02-19T05:27:55.004Z,1005.74
2023-02-19T05:28:55.012Z,1005.80
2023-02-19T05:29:54.995Z,1005.78
2023-02-19T05:30:55.014Z,1005.88
2023-02-19T05:31:55.101Z,1005.82
2023-02-19T05:32:55.019Z,1005.83
2023-02-19T05:33:54.958Z,1005.91
2023-02-19T05:34:54.985Z,1005.85
2023-02-19T05:35:54.979Z,1005.89
2023-02-19T05:36:54.917Z,1005.82
2023-02-19T05:37:54.922Z,1005.85
2023-02-19T05:38:54.898Z,1005.97
2023-02-19T05:39:54.912Z,1005.92
2023-02-19T05:40:54.910Z,1005.88
2023-02-19T05:41:54.877Z,1005.90
2023-02-19T05:42:54.872Z,1005.87
2023-02-19T05:43:54.847Z,1005.98
2023-02-19T05:44:54.818Z,1005.94
2023-02-19T05:45:54.824Z,1005.73
2023-02-19T05:46:54.808Z,1005.96
2023-02-19T05:47:54.827Z,1005.98
2023-02-19T05:48:54.806Z,1006.04
2023-02-19T05:49:54.801Z,1006.01
2023-02-19T05:50:54.784Z,1006.02
2023-02-19T05:51:54.756Z,1006.09
2023-02-19T05:52:54.851Z,1006.05
2023-02-19T05:53:54.709Z,1006.01
2023-02-19T05:54:54.714Z,1005.97
2023-02-19T05:55:54.763Z,1006.05
2023-02-19T05:56:54.681Z,1006.14
2023-02-19T05:57:54.671Z,1006.09
2023-02-19T05:58:54.689Z,1006.12
2023-02-19T05:59:54.694Z,1006.10
2023-02-19T06:00:54.728Z,1006.08
2023-02-19T06:01:54.647Z,1006.09
2023-02-19T06:02:54.745Z,1006.10
2023-02-19T06:03:57.225Z,1006.07
2023-02-19T06:04:54.618Z,1006.13
2023-02-19T06:05:54.618Z,1006.12
2023-02-19T06:06:54.591Z,1006.02
2023-02-19T06:07:54.600Z,1006.06
2023-02-19T06:08:54.540Z,1006.13
2023-02-19T06:09:54.568Z,1006.11
2023-02-19T06:10:54.523Z,1006.17
2023-02-19T06:11:54.592Z,1006.22
2023-02-19T06:12:54.494Z,1006.24
2023-02-19T06:13:54.499Z,1006.18
2023-02-19T06:14:54.486Z,1006.21
2023-02-19T06:15:54.503Z,1006.18
2023-02-19T06:16:54.447Z,1006.28
2023-02-19T06:17:54.524Z,1006.28
2023-02-19T06:18:54.429Z,1006.20
2023-02-19T06:19:54.425Z,1006.29
2023-02-19T06:20:54.395Z,1006.25
2023-02-19T06:21:54.422Z,1006.29
2023-02-19T06:22:54.406Z,1006.35
2023-02-19T06:23:54.434Z,1006.25
2023-02-19T06:24:54.390Z,1006.31
2023-02-19T06:25:54.357Z,1006.29
2023-02-19T06:26:54.337Z,1006.30
2023-02-19T06:27:54.332Z,1006.29
2023-02-19T06:28:54.357Z,1006.29
2023-02-19T06:29:54.360Z,1006.27
2023-02-19T06:30:54.308Z,1006.29
2023-02-19T06:31:54.488Z,1006.43
2023-02-19T06:32:54.300Z,1006.42
2023-02-19T06:33:54.297Z,1006.38
2023-02-19T06:34:54.291Z,1006.36
2023-02-19T06:35:54.270Z,1006.47
2023-02-19T06:36:54.359Z,1006.50
2023-02-19T06:37:54.225Z,1006.52
2023-02-19T06:38:54.229Z,1006.51
2023-02-19T06:39:54.233Z,1006.51
2023-02-19T06:40:54.204Z,1006.55
2023-02-19T06:41:54.187Z,1006.58
2023-02-19T06:42:54.173Z,1006.47
2023-02-19T06:43:54.200Z,1006.49
2023-02-19T06:44:54.152Z,1006.38
2023-02-19T06:45:54.154Z,1006.53
2023-02-19T06:46:54.211Z,1006.55
2023-02-19T06:47:54.110Z,1006.59
2023-02-19T06:48:54.396Z,1006.50
2023-02-19T06:49:54.104Z,1006.63
2023-02-19T06:50:54.063Z,1006.62
2023-02-19T06:51:54.073Z,1006.64
2023-02-19T06:52:54.050Z,1006.64
2023-02-19T06:53:54.093Z,1006.61
2023-02-19T06:54:54.045Z,1006.64
2023-02-19T06:55:54.046Z,1006.67
2023-02-19T06:56:54.022Z,1006.71
2023-02-19T06:57:54.001Z,1006.72
2023-02-19T06:58:54.068Z,1006.79
2023-02-19T06:59:53.979Z,1006.81
2023-02-19T07:00:53.989Z,1006.88
2023-02-19T07:01:53.958Z,1006.85
2023-02-19T07:02:53.947Z,1006.96
2023-02-19T07:03:53.963Z,1006.90
2023-02-19T07:04:53.943Z,1006.87
2023-02-19T07:05:53.917Z,1006.95
2023-02-19T07:06:53.879Z,1006.90
2023-02-19T07:07:53.905Z,1007.00
2023-02-19T07:08:53.868Z,1006.90
2023-02-19T07:09:53.876Z,1006.94
2023-02-19T07:10:53.888Z,1007.01
2023-02-19T07:11:53.828Z,1006.97
2023-02-19T07:12:53.833Z,1007.06
2023-02-19T07:13:53.835Z,1007.10
2023-02-19T07:14:53.816Z,1007.10
2023-02-19T07:15:53.816Z,1007.05
2023-02-19T07:16:53.822Z,1007.11
2023-02-19T07:17:53.781Z,1007.10
2023-02-19T07:18:53.778Z,1007.17
2023-02-19T07:19:53.765Z,1007.19
2023-02-19T07:20:53.748Z,1007.23
2023-02-19T07:21:53.767Z,1007.20
2023-02-19T07:22:53.687Z,1007.24
2023-02-19T07:23:53.705Z,1007.25
2023-02-19T07:24:53.669Z,1007.29
2023-02-19T07:25:53.727Z,1007.34
2023-02-19T07:26:53.772Z,1007.33
2023-02-19T07:27:53.828Z,1007.34
2023-02-19T07:28:53.696Z,1007.39
2023-02-19T07:29:53.624Z,1007.36
2023-02-19T07:30:53.637Z,1007.36
2023-02-19T07:31:53.724Z,1007.39
2023-02-19T07:32:53.580Z,1007.45
2023-02-19T07:33:53.629Z,1007.40
2023-02-19T07:34:53.550Z,1007.37
2023-02-19T07:35:53.592Z,1007.46
2023-02-19T07:36:53.536Z,1007.45
2023-02-19T07:37:53.548Z,1007.54
2023-02-19T07:38:53.689Z,1007.54
2023-02-19T07:39:53.544Z,1007.57
2023-02-19T07:40:53.489Z,1007.51
2023-02-19T07:41:53.525Z,1007.52
2023-02-19T07:42:53.472Z,1007.57
2023-02-19T07:43:53.471Z,1007.50
2023-02-19T07:44:53.478Z,1007.52
2023-02-19T07:45:53.514Z,1007.61
2023-02-19T07:46:53.417Z,1007.61
2023-02-19T07:47:53.418Z,1007.65
2023-02-19T07:48:53.419Z,1007.61
2023-02-19T07:49:53.410Z,1007.66
2023-02-19T07:50:53.379Z,1007.74
2023-02-19T07:51:53.378Z,1007.73
2023-02-19T07:52:53.387Z,1007.73
2023-02-19T07:53:53.395Z,1007.71
2023-02-19T07:54:53.361Z,1007.75
2023-02-19T07:55:53.336Z,1007.68
2023-02-19T07:56:53.337Z,1007.72
2023-02-19T07:57:53.338Z,1007.73
2023-02-19T07:58:53.336Z,1007.78
2023-02-19T07:59:53.292Z,1007.75
2023-02-19T08:00:53.292Z,1007.75
2023-02-19T08:01:53.290Z,1007.76
2023-02-19T08:02:53.261Z,1007.81
2023-02-19T08:03:53.243Z,1007.86
2023-02-19T08:04:53.261Z,1007.83
2023-02-19T08:05:53.240Z,1007.83
2023-02-19T08:06:53.228Z,1007.87
2023-02-19T08:07:53.224Z,1007.89
2023-02-19T08:08:54.080Z,1007.90
2023-02-19T08:09:53.218Z,1007.95
2023-02-19T08:10:53.155Z,1007.98
2023-02-19T08:11:54.864Z,1007.96
2023-02-19T08:12:53.124Z,1007.93
2023-02-19T08:13:53.134Z,1008.01
2023-02-19T08:14:53.094Z,1008.09
2023-02-19T08:15:53.132Z,1008.07
2023-02-19T08:16:53.200Z,1008.04
2023-02-19T08:17:53.094Z,1008.10
2023-02-19T08:18:53.061Z,1008.18
2023-02-19T08:19:53.084Z,1008.19
2023-02-19T08:20:53.054Z,1008.16
2023-02-19T08:21:53.026Z,1008.17
2023-02-19T08:22:53.032Z,1008.13
2023-02-19T08:23:53.032Z,1008.10
2023-02-19T08:24:53.027Z,1008.14
2023-02-19T08:25:53.013Z,1008.19
2023-02-19T08:26:52.966Z,1008.24
2023-02-19T08:27:53.016Z,1008.12
2023-02-19T08:28:52.967Z,1008.09
2023-02-19T08:29:52.955Z,1008.06
2023-02-19T08:30:52.957Z,1008.24
2023-02-19T08:31:52.951Z,1008.18
2023-02-19T08:32:52.921Z,1008.18
2023-02-19T08:33:52.919Z,1008.18
2023-02-19T08:34:52.894Z,1008.15
2023-02-19T08:35:52.867Z,1008.17
2023-02-19T08:36:52.902Z,1008.13
2023-02-19T08:37:52.873Z,1008.17
2023-02-19T08:38:52.827Z,1008.16
2023-02-19T08:39:54.778Z,1008.17
2023-02-19T08:40:52.799Z,1008.19
2023-02-19T08:41:52.862Z,1008.19
2023-02-19T08:42:52.797Z,1008.22
2023-02-19T08:43:52.771Z,1008.30
2023-02-19T08:44:52.752Z,1008.27
2023-02-19T08:45:52.778Z,1008.25
2023-02-19T08:46:52.749Z,1008.22
2023-02-19T08:47:52.755Z,1008.27
2023-02-19T08:48:52.714Z,1008.27
2023-02-19T08:49:52.710Z,1008.26
2023-02-19T08:50:52.705Z,1008.23
2023-02-19T08:51:52.695Z,1008.26
2023-02-19T08:52:52.684Z,1008.29
2023-02-19T08:53:52.649Z,1008.29
2023-02-19T08:54:52.630Z,1008.30
2023-02-19T08:55:52.633Z,1008.35
2023-02-19T08:56:52.619Z,1008.33
2023-02-19T08:57:52.612Z,1008.31
2023-02-19T08:58:52.595Z,1008.29
2023-02-19T08:59:52.621Z,1008.29
2023-02-19T09:00:52.577Z,1008.32
2023-02-19T09:01:52.554Z,1008.33
2023-02-19T09:02:52.530Z,1008.27
2023-02-19T09:03:52.603Z,1008.34
2023-02-19T09:04:52.501Z,1008.29
2023-02-19T09:05:52.537Z,1008.26
2023-02-19T09:06:52.481Z,1008.25
2023-02-19T09:07:52.529Z,1008.32
2023-02-19T09:08:52.487Z,1008.37
2023-02-19T09:09:52.461Z,1008.42
2023-02-19T09:10:52.457Z,1008.40
2023-02-19T09:11:52.441Z,1008.46
2023-02-19T09:12:52.414Z,1008.41
2023-02-19T09:13:52.457Z,1008.43
2023-02-19T09:14:52.389Z,1008.47
2023-02-19T09:15:52.488Z,1008.51
2023-02-19T09:16:52.421Z,1008.54
2023-02-19T09:17:52.394Z,1008.56
2023-02-19T09:18:52.560Z,1008.68
2023-02-19T09:19:52.372Z,1008.64
2023-02-19T09:20:52.341Z,1008.68
2023-02-19T09:21:52.348Z,1008.69
2023-02-19T09:22:52.332Z,1008.72
2023-02-19T09:23:52.353Z,1008.63
2023-02-19T09:24:52.303Z,1008.65
2023-02-19T09:25:52.315Z,1008.75
2023-02-19T09:26:52.273Z,1008.73
2023-02-19T09:27:52.248Z,1008.78
2023-02-19T09:28:52.255Z,1008.74
2023-02-19T09:29:52.259Z,1008.84
2023-02-19T09:30:52.247Z,1008.79
2023-02-19T09:31:52.224Z,1008.90
2023-02-19T09:32:52.180Z,1008.85
2023-02-19T09:33:52.183Z,1008.85
2023-02-19T09:34:52.177Z,1008.85
2023-02-19T09:35:52.252Z,1008.83
2023-02-19T09:36:52.157Z,1008.88
2023-02-19T09:37:52.187Z,1008.84
2023-02-19T09:38:52.184Z,1008.91
2023-02-19T09:39:56.207Z,1008.90
2023-02-19T09:40:52.135Z,1008.95
2023-02-19T09:41:52.171Z,1008.89
2023-02-19T09:42:52.112Z,1008.90
2023-02-19T09:43:52.073Z,1008.95
2023-02-19T09:44:56.229Z,1008.98
2023-02-19T09:45:52.194Z,1008.96
2023-02-19T09:46:52.083Z,1009.02
2023-02-19T09:47:52.126Z,1008.93
2023-02-19T09:48:52.003Z,1008.94
2023-02-19T09:49:52.120Z,1008.96
2023-02-19T09:50:52.065Z,1008.98
2023-02-19T09:51:51.999Z,1009.05
2023-02-19T09:52:51.971Z,1009.07
2023-02-19T09:53:51.990Z,1009.11
2023-02-19T09:54:51.960Z,1009.07
2023-02-19T09:55:51.949Z,1009.07
2023-02-19T09:56:59.124Z,1009.09
2023-02-19T09:57:51.939Z,1009.10
2023-02-19T09:58:51.896Z,1009.12
2023-02-19T09:59:51.893Z,1009.14
2023-02-19T10:00:51.891Z,1009.13
2023-02-19T10:01:51.921Z,1009.16
2023-02-19T10:02:51.998Z,1009.22
2023-02-19T10:03:51.818Z,1009.31
2023-02-19T10:04:51.829Z,1009.25
2023-02-19T10:05:51.825Z,1009.26
2023-02-19T10:06:51.797Z,1009.24
2023-02-19T10:07:51.796Z,1009.28
2023-02-19T10:08:51.773Z,1009.31
2023-02-19T10:09:51.759Z,1009.37
2023-02-19T10:10:51.738Z,1009.42
2023-02-19T10:11:51.735Z,1009.40
2023-02-19T10:12:51.720Z,1009.44
2023-02-19T10:13:51.717Z,1009.48
2023-02-19T10:14:51.720Z,1009.67
2023-02-19T10:15:51.676Z,1009.62
2023-02-19T10:16:51.693Z,1009.65
2023-02-19T10:17:51.690Z,1009.68
2023-02-19T10:18:51.701Z,1009.64
2023-02-19T10:19:51.650Z,1009.70
2023-02-19T10:20:51.647Z,1009.78
2023-02-19T10:21:51.600Z,1009.72
2023-02-19T10:22:51.610Z,1009.72
2023-02-19T10:23:53.274Z,1009.74
2023-02-19T10:24:51.615Z,1009.71
2023-02-19T10:25:51.541Z,1009.64
2023-02-19T10:26:51.554Z,1009.65
2023-02-19T10:27:51.551Z,1009.67
2023-02-19T10:28:51.561Z,1009.78
2023-02-19T10:29:51.552Z,1009.82
2023-02-19T10:30:51.520Z,1009.89
2023-02-19T10:31:51.543Z,1009.85
2023-02-19T10:32:51.495Z,1009.92
2023-02-19T10:33:51.485Z,1009.96
2023-02-19T10:34:51.455Z,1009.97
2023-02-19T10:35:51.426Z,1010.00
2023-02-19T10:36:51.504Z,1010.04
2023-02-19T10:37:51.409Z,1010.01
2023-02-19T10:38:51.435Z,1010.03
2023-02-19T10:39:51.400Z,1009.95
2023-02-19T10:40:51.403Z,1009.94
2023-02-19T10:41:51.424Z,1009.96
2023-02-19T10:42:51.381Z,1009.95
2023-02-19T10:43:51.337Z,1009.91
2023-02-19T10:44:51.358Z,1010.08
2023-02-19T10:45:51.334Z,1010.00
2023-02-19T10:46:51.311Z,1010.00
2023-02-19T10:47:51.295Z,1010.01
2023-02-19T10:48:51.353Z,1009.98
2023-02-19T10:49:51.285Z,1009.96
2023-02-19T10:50:51.286Z,1009.91
2023-02-19T10:51:52.946Z,1009.89
2023-02-19T10:52:51.243Z,1009.92
2023-02-19T10:53:51.292Z,1009.93
2023-02-19T10:54:51.218Z,1009.94
2023-02-19T10:55:51.200Z,1009.98
2023-02-19T10:56:51.195Z,1010.02
2023-02-19T10:57:51.215Z,1010.02
2023-02-19T10:58:51.211Z,1010.12
2023-02-19T10:59:51.152Z,1010.11
2023-02-19T11:00:51.142Z,1010.16
2023-02-19T11:01:51.203Z,1010.20
2023-02-19T11:02:51.123Z,1010.18
2023-02-19T11:03:51.120Z,1010.21
2023-02-19T11:04:51.119Z,1010.25
2023-02-19T11:05:51.071Z,1010.30
2023-02-19T11:06:51.092Z,1010.25
2023-02-19T11:07:51.212Z,1010.21
2023-02-19T11:08:51.085Z,1010.23
2023-02-19T11:09:51.050Z,1010.19
2023-02-19T11:10:51.023Z,1010.29
2023-02-19T11:11:51.075Z,1010.18
2023-02-19T11:12:51.003Z,1010.12
2023-02-19T11:13:51.000Z,1010.14
2023-02-19T11:14:50.985Z,1010.18
2023-02-19T11:15:50.996Z,1010.31
2023-02-19T11:16:51.224Z,1010.27
2023-02-19T11:17:50.950Z,1010.30
2023-02-19T11:18:50.959Z,1010.28
2023-02-19T11:19:50.931Z,1010.30
2023-02-19T11:20:50.931Z,1010.33
2023-02-19T11:21:50.897Z,1010.24
2023-02-19T11:22:50.902Z,1010.39
2023-02-19T11:23:50.855Z,1010.30
2023-02-19T11:24:51.800Z,1010.32
2023-02-19T11:25:50.825Z,1010.36
2023-02-19T11:26:51.003Z,1010.34
2023-02-19T11:27:50.829Z,1010.21
2023-02-19T11:28:50.808Z,1010.27
2023-02-19T11:29:50.777Z,1010.17
2023-02-19T11:30:50.777Z,1010.23
2023-02-19T11:31:50.871Z,1010.22
2023-02-19T11:32:50.829Z,1010.21
2023-02-19T11:33:50.732Z,1010.18
2023-02-19T11:34:50.765Z,1010.26
2023-02-19T11:35:50.709Z,1010.24
2023-02-19T11:36:50.758Z,1010.30
2023-02-19T11:37:50.682Z,1010.24
2023-02-19T11:38:50.711Z,1010.34
2023-02-19T11:39:50.696Z,1010.35
2023-02-19T11:40:50.722Z,1010.27
2023-02-19T11:41:50.644Z,1010.26
2023-02-19T11:42:50.643Z,1010.23
2023-02-19T11:43:50.646Z,1010.19
2023-02-19T11:44:50.676Z,1010.14
2023-02-19T11:45:50.612Z,1010.14
2023-02-19T11:46:50.685Z,1010.11
2023-02-19T11:47:50.566Z,1010.13
2023-02-19T11:48:50.605Z,1010.04
2023-02-19T11:49:50.586Z,1010.03
2023-02-19T11:50:50.573Z,1010.08
2023-02-19T11:51:52.793Z,1010.07
2023-02-19T11:52:50.529Z,1010.00
2023-02-19T11:53:50.505Z,1010.01
2023-02-19T11:54:50.558Z,1010.01
2023-02-19T11:55:50.501Z,1010.02
2023-02-19T11:56:50.467Z,1010.07
2023-02-19T11:57:50.479Z,1009.92
2023-02-19T11:58:50.503Z,1010.00
2023-02-19T11:59:50.445Z,1009.99
2023-02-19T12:00:50.494Z,1009.98
2023-02-19T12:01:50.420Z,1009.98
2023-02-19T12:02:50.438Z,1009.95
2023-02-19T12:03:50.414Z,1009.98
2023-02-19T12:04:50.406Z,1009.94
2023-02-19T12:05:50.396Z,1009.92